createdAt,value
2023-02-09T00:00:19.247Z,30.10
2023-02-09T00:02:46.569Z,25.87
2023-02-09T00:05:14.139Z,26.97
2023-02-09T00:07:41.403Z,22.60
2023-02-09T00:10:09.286Z,24.00
2023-02-09T00:12:56.190Z,27.00
2023-02-09T00:15:23.462Z,29.47
2023-02-09T00:17:50.763Z,25.80
2023-02-09T00:20:18.275Z,23.13
2023-02-09T00:22:45.555Z,21.60
2023-02-09T00:25:12.960Z,22.33
2023-02-09T00:27:40.252Z,24.53
2023-02-09T00:30:07.780Z,27.13
2023-02-09T00:32:35.080Z,23.50
2023-02-09T00:35:02.435Z,20.80
2023-02-09T00:37:29.895Z,18.67
2023-02-09T00:39:57.307Z,25.53
2023-02-09T00:42:24.631Z,30.87
2023-02-09T00:44:51.992Z,28.97
2023-02-09T00:47:19.321Z,24.57
2023-02-09T00:49:46.727Z,27.00
2023-02-09T00:52:14.084Z,30.87
2023-02-09T00:54:41.707Z,26.37
2023-02-09T00:57:09.723Z,26.83
2023-02-09T00:59:40.920Z,27.60
2023-02-09T01:02:09.730Z,31.90
2023-02-09T01:04:39.010Z,27.60
2023-02-09T01:07:06.457Z,27.23
2023-02-09T01:09:33.837Z,26.83
2023-02-09T01:12:01.221Z,30.23
2023-02-09T01:14:28.530Z,28.37
2023-02-09T01:16:57.301Z,30.97
2023-02-09T01:19:26.846Z,28.80
2023-02-09T01:21:55.532Z,34.37
2023-02-09T01:24:23.042Z,36.17
2023-02-09T01:26:50.345Z,30.23
2023-02-09T01:29:19.235Z,31.30
2023-02-09T01:31:47.279Z,29.03
2023-02-09T01:34:16.149Z,31.07
2023-02-09T01:36:43.522Z,24.80
2023-02-09T01:39:12.054Z,24.47
2023-02-09T01:41:40.064Z,31.17
2023-02-09T01:44:13.388Z,33.87
2023-02-09T01:46:40.709Z,30.90
2023-02-09T01:49:08.329Z,31.90
2023-02-09T01:51:37.310Z,28.20
2023-02-09T01:54:14.059Z,28.80
2023-02-09T01:56:43.378Z,26.60
2023-02-09T01:59:13.011Z,38.67
2023-02-09T02:01:40.884Z,27.57
2023-02-09T02:04:08.693Z,28.13
2023-02-09T02:06:37.129Z,45.07
2023-02-09T02:09:10.561Z,30.93
2023-02-09T02:11:38.542Z,35.57
2023-02-09T02:14:27.821Z,29.33
2023-02-09T02:17:02.005Z,35.07
2023-02-09T02:19:48.237Z,33.00
2023-02-09T02:22:15.551Z,29.37
2023-02-09T02:25:00.819Z,37.67
2023-02-09T02:27:40.285Z,40.27
2023-02-09T02:30:33.978Z,33.23
2023-02-09T02:33:13.253Z,37.30
2023-02-09T02:35:44.499Z,32.10
2023-02-09T02:38:16.613Z,31.60
2023-02-09T02:40:50.277Z,33.97
2023-02-09T02:43:39.324Z,34.43
2023-02-09T02:46:11.132Z,35.13
2023-02-09T02:49:15.281Z,30.27
2023-02-09T02:51:44.386Z,29.00
2023-02-09T02:54:21.806Z,30.17
2023-02-09T02:56:54.146Z,33.57
2023-02-09T02:59:23.760Z,37.50
2023-02-09T03:01:55.548Z,43.13
2023-02-09T03:04:23.596Z,31.27
2023-02-09T03:06:50.915Z,33.17
2023-02-09T03:09:18.791Z,35.90
2023-02-09T03:11:48.898Z,32.07
2023-02-09T03:14:19.193Z,25.83
2023-02-09T03:16:46.473Z,35.10
2023-02-09T03:19:26.049Z,32.03
2023-02-09T03:21:59.144Z,27.00
2023-02-09T03:24:29.244Z,37.70
2023-02-09T03:26:59.252Z,34.43
2023-02-09T03:29:28.539Z,34.67
2023-02-09T03:31:56.810Z,34.67
2023-02-09T03:34:24.110Z,30.97
2023-02-09T03:36:52.992Z,39.40
2023-02-09T03:39:20.273Z,29.30
2023-02-09T03:41:47.581Z,38.67
2023-02-09T03:44:26.990Z,30.63
2023-02-09T03:46:55.305Z,32.90
2023-02-09T03:49:22.741Z,35.07
2023-02-09T03:51:50.106Z,33.10
2023-02-09T03:54:17.458Z,32.17
2023-02-09T03:56:45.126Z,29.33
2023-02-09T03:59:12.662Z,33.07
2023-02-09T04:01:40.046Z,32.70
2023-02-09T04:04:07.304Z,35.13
2023-02-09T04:06:35.347Z,31.87
2023-02-09T04:09:03.073Z,37.83
2023-02-09T04:11:30.620Z,27.97
2023-02-09T04:13:58.031Z,32.53
2023-02-09T04:16:25.546Z,33.10
2023-02-09T04:18:53.052Z,40.50
2023-02-09T04:21:20.409Z,32.37
2023-02-09T04:23:50.375Z,33.80
2023-02-09T04:26:20.679Z,36.00
2023-02-09T04:28:48.003Z,40.20
2023-02-09T04:31:15.419Z,34.20
2023-02-09T04:33:42.747Z,33.97
2023-02-09T04:36:10.331Z,34.07
2023-02-09T04:38:37.644Z,35.13
2023-02-09T04:41:05.713Z,27.67
2023-02-09T04:43:33.907Z,27.57
2023-02-09T04:46:01.955Z,33.10
2023-02-09T04:48:30.127Z,36.07
2023-02-09T04:50:57.472Z,28.17
2023-02-09T04:53:24.813Z,31.37
2023-02-09T04:55:53.029Z,33.40
2023-02-09T04:58:39.474Z,32.53
2023-02-09T05:01:07.499Z,30.93
2023-02-09T05:03:35.347Z,27.60
2023-02-09T05:06:04.035Z,29.90
2023-02-09T05:08:31.564Z,30.60
2023-02-09T05:10:59.550Z,30.07
2023-02-09T05:13:27.189Z,27.37
2023-02-09T05:15:54.793Z,29.50
2023-02-09T05:18:22.700Z,33.23
2023-02-09T05:20:50.364Z,31.40
2023-02-09T05:23:18.678Z,27.60
2023-02-09T05:25:47.691Z,33.03
2023-02-09T05:28:15.489Z,36.43
2023-02-09T05:30:43.118Z,37.70
2023-02-09T05:33:10.501Z,31.37
2023-02-09T05:35:38.036Z,33.87
2023-02-09T05:38:05.358Z,31.90
2023-02-09T05:40:32.691Z,35.87
2023-02-09T05:43:00.349Z,33.47
2023-02-09T05:45:27.653Z,34.00
2023-02-09T05:47:54.935Z,31.93
2023-02-09T05:50:22.261Z,40.00
2023-02-09T05:52:49.568Z,30.07
2023-02-09T05:55:16.879Z,30.27
2023-02-09T05:57:44.587Z,30.83
2023-02-09T06:00:12.387Z,27.07
2023-02-09T06:02:39.950Z,34.73
2023-02-09T06:05:07.472Z,37.97
2023-02-09T06:07:34.792Z,36.87
2023-02-09T06:10:02.054Z,38.67
2023-02-09T06:12:29.610Z,31.33
2023-02-09T06:14:56.917Z,34.20
2023-02-09T06:17:24.373Z,34.20
2023-02-09T06:19:51.786Z,41.17
2023-02-09T06:22:19.305Z,47.73
2023-02-09T06:24:46.566Z,42.17
2023-02-09T06:27:13.927Z,37.63
2023-02-09T06:29:41.323Z,34.70
2023-02-09T06:32:08.771Z,37.33
2023-02-09T06:34:36.393Z,36.43
2023-02-09T06:37:04.095Z,33.70
2023-02-09T06:39:31.411Z,34.53
2023-02-09T06:41:58.832Z,37.13
2023-02-09T06:44:26.122Z,32.67
2023-02-09T06:46:53.448Z,37.93
2023-02-09T06:49:23.610Z,40.83
2023-02-09T06:51:51.337Z,36.63
2023-02-09T06:54:20.218Z,36.73
2023-02-09T06:56:48.100Z,31.40
2023-02-09T06:59:16.227Z,34.37
2023-02-09T07:01:43.652Z,33.27
2023-02-09T07:04:11.031Z,30.77
2023-02-09T07:06:38.298Z,48.17
2023-02-09T07:09:05.803Z,45.00
2023-02-09T07:11:33.343Z,36.57
2023-02-09T07:14:00.808Z,37.20
2023-02-09T07:16:28.227Z,36.20
2023-02-09T07:18:55.595Z,43.90
2023-02-09T07:21:27.809Z,41.03
2023-02-09T07:23:55.685Z,39.17
2023-02-09T07:26:23.227Z,34.57
2023-02-09T07:28:50.692Z,34.17
2023-02-09T07:31:18.709Z,35.40
2023-02-09T07:33:46.531Z,33.37
2023-02-09T07:36:15.120Z,43.13
2023-02-09T07:38:43.150Z,40.20
2023-02-09T07:41:14.526Z,43.20
2023-02-09T07:43:42.184Z,40.70
2023-02-09T07:46:10.229Z,39.37
2023-02-09T07:48:38.226Z,32.83
2023-02-09T07:51:05.883Z,42.97
2023-02-09T07:53:33.681Z,39.83
2023-02-09T07:56:01.018Z,36.40
2023-02-09T07:58:28.385Z,37.60
2023-02-09T08:00:55.829Z,33.47
2023-02-09T08:03:23.889Z,37.33
2023-02-09T08:06:04.879Z,29.03
2023-02-09T08:08:32.137Z,24.83
2023-02-09T08:11:00.212Z,38.47
2023-02-09T08:13:29.827Z,47.93
2023-02-09T08:15:59.681Z,48.67
2023-02-09T08:18:29.853Z,38.73
2023-02-09T08:20:57.256Z,44.27
2023-02-09T08:23:28.250Z,34.83
2023-02-09T08:25:55.989Z,36.40
2023-02-09T08:28:34.901Z,31.43
2023-02-09T08:31:09.547Z,28.20
2023-02-09T08:33:36.987Z,31.03
2023-02-09T08:36:04.377Z,27.37
2023-02-09T08:38:31.676Z,27.07
2023-02-09T08:41:02.371Z,31.83
2023-02-09T08:43:29.660Z,24.03
2023-02-09T08:46:02.026Z,29.53
2023-02-09T08:48:35.634Z,30.50
2023-02-09T08:51:03.323Z,23.53
2023-02-09T08:53:30.668Z,29.83
2023-02-09T08:55:58.211Z,34.73
2023-02-09T08:58:30.175Z,31.73
2023-02-09T09:00:59.224Z,34.20
2023-02-09T09:03:53.684Z,37.63
2023-02-09T09:06:22.897Z,31.47
2023-02-09T09:08:51.638Z,31.07
2023-02-09T09:11:19.043Z,28.73
2023-02-09T09:13:46.713Z,30.20
2023-02-09T09:16:15.588Z,29.90
2023-02-09T09:18:47.226Z,32.93
2023-02-09T09:21:15.984Z,30.90
2023-02-09T09:23:43.678Z,32.77
2023-02-09T09:26:16.507Z,32.77
2023-02-09T09:28:44.350Z,26.73
2023-02-09T09:31:13.777Z,25.60
2023-02-09T09:33:41.818Z,27.07
2023-02-09T09:36:10.080Z,27.37
2023-02-09T09:38:37.911Z,28.70
2023-02-09T09:41:06.559Z,26.63
2023-02-09T09:43:35.793Z,29.17
2023-02-09T09:46:03.763Z,25.67
2023-02-09T09:48:41.636Z,25.00
2023-02-09T09:51:32.305Z,28.50
2023-02-09T09:54:00.250Z,28.37
2023-02-09T09:56:29.109Z,29.67
2023-02-09T09:58:56.891Z,29.87
2023-02-09T10:01:26.014Z,29.97
2023-02-09T10:03:53.942Z,31.85
2023-02-09T10:06:22.851Z,25.23
2023-02-09T10:08:56.128Z,30.73
2023-02-09T10:11:25.677Z,26.77
2023-02-09T10:13:54.399Z,28.23
2023-02-09T10:16:26.588Z,36.23
2023-02-09T10:18:54.856Z,30.27
2023-02-09T10:21:23.413Z,33.93
2023-02-09T10:24:11.590Z,27.57
2023-02-09T10:26:40.742Z,21.43
2023-02-09T10:29:20.613Z,27.47
2023-02-09T10:32:07.105Z,35.00
2023-02-09T10:34:43.290Z,35.53
2023-02-09T10:37:18.984Z,30.70
2023-02-09T10:39:55.550Z,36.03
2023-02-09T10:42:43.260Z,31.37
2023-02-09T10:45:15.713Z,22.30
2023-02-09T10:47:43.523Z,28.80
2023-02-09T10:50:19.428Z,26.43
2023-02-09T10:53:03.429Z,30.47
2023-02-09T10:55:30.649Z,28.20
2023-02-09T10:58:04.832Z,29.47
2023-02-09T11:00:39.293Z,27.37
2023-02-09T11:03:14.169Z,26.97
2023-02-09T11:05:41.633Z,28.83
2023-02-09T11:08:25.162Z,32.20
2023-02-09T11:10:59.739Z,24.40
2023-02-09T11:13:27.716Z,23.57
2023-02-09T11:16:07.706Z,31.27
2023-02-09T11:18:35.625Z,28.67
2023-02-09T11:21:23.200Z,25.70
2023-02-09T11:23:54.006Z,32.57
2023-02-09T11:26:31.846Z,30.47
2023-02-09T11:29:17.609Z,31.03
2023-02-09T11:31:46.440Z,22.53
2023-02-09T11:34:19.838Z,33.33
2023-02-09T11:37:00.415Z,28.33
2023-02-09T11:39:38.695Z,30.53
2023-02-09T11:42:26.673Z,25.03
2023-02-09T11:44:56.943Z,31.57
2023-02-09T11:47:29.176Z,26.37
2023-02-09T11:49:58.517Z,32.20
2023-02-09T11:52:29.354Z,24.50
2023-02-09T11:55:00.125Z,29.80
2023-02-09T11:57:47.564Z,31.83
2023-02-09T12:00:23.764Z,26.67
2023-02-09T12:03:04.816Z,24.63
2023-02-09T12:05:32.306Z,29.70
2023-02-09T12:08:23.541Z,30.07
2023-02-09T12:10:56.884Z,24.50
2023-02-09T12:13:24.155Z,29.27
2023-02-09T12:15:53.184Z,29.67
2023-02-09T12:18:25.049Z,30.70
2023-02-09T12:20:59.553Z,27.00
2023-02-09T12:23:26.833Z,29.70
2023-02-09T12:25:55.378Z,32.83
2023-02-09T12:28:28.891Z,27.83
2023-02-09T12:30:59.341Z,31.40
2023-02-09T12:33:26.800Z,29.57
2023-02-09T12:36:18.294Z,30.27
2023-02-09T12:39:04.057Z,26.77
2023-02-09T12:41:51.761Z,32.43
2023-02-09T12:44:19.803Z,26.27
2023-02-09T12:46:47.224Z,36.57
2023-02-09T12:49:14.546Z,30.93
2023-02-09T12:51:44.810Z,28.17
2023-02-09T12:54:31.246Z,27.33
2023-02-09T12:57:17.151Z,30.47
2023-02-09T12:59:51.082Z,28.87
2023-02-09T13:02:27.842Z,32.83
2023-02-09T13:05:13.210Z,32.57
2023-02-09T13:07:52.604Z,31.07
2023-02-09T13:10:24.457Z,32.10
2023-02-09T13:13:04.543Z,31.97
2023-02-09T13:15:44.101Z,32.63
2023-02-09T13:18:18.040Z,30.27
2023-02-09T13:20:56.206Z,27.77
2023-02-09T13:23:29.874Z,36.13
2023-02-09T13:26:29.797Z,26.73
2023-02-09T13:29:20.942Z,27.23
2023-02-09T13:31:50.157Z,35.10
2023-02-09T13:34:20.577Z,28.63
2023-02-09T13:36:56.365Z,30.53
2023-02-09T13:39:25.373Z,23.57
2023-02-09T13:41:54.040Z,31.13
2023-02-09T13:44:25.818Z,32.10
2023-02-09T13:46:54.225Z,36.07
2023-02-09T13:49:22.160Z,31.53
2023-02-09T13:52:28.294Z,24.33
2023-02-09T13:55:08.256Z,29.23
2023-02-09T13:57:36.612Z,23.77
2023-02-09T14:00:10.423Z,25.10
2023-02-09T14:02:52.430Z,30.57
2023-02-09T14:05:26.228Z,26.67
2023-02-09T14:07:54.200Z,30.00
2023-02-09T14:10:22.216Z,28.50
2023-02-09T14:12:52.891Z,25.47
2023-02-09T14:15:40.920Z,26.73
2023-02-09T14:18:27.022Z,25.20
2023-02-09T14:21:15.766Z,27.87
2023-02-09T14:24:04.038Z,29.23
2023-02-09T14:26:36.129Z,26.03
2023-02-09T14:29:17.859Z,26.73
2023-02-09T14:31:50.279Z,19.93
2023-02-09T14:34:32.902Z,21.90
2023-02-09T14:37:12.553Z,23.53
2023-02-09T14:39:55.291Z,27.00
2023-02-09T14:42:22.988Z,26.50
2023-02-09T14:44:58.007Z,24.23
2023-02-09T14:47:39.729Z,33.40
2023-02-09T14:50:27.507Z,26.20
2023-02-09T14:53:06.572Z,25.70
2023-02-09T14:55:40.189Z,28.60
2023-02-09T14:58:11.689Z,27.33
2023-02-09T15:00:39.068Z,25.90
2023-02-09T15:03:06.407Z,21.80
2023-02-09T15:05:33.815Z,36.37
2023-02-09T15:08:05.810Z,21.93
2023-02-09T15:10:35.212Z,26.20
2023-02-09T15:13:03.320Z,28.40
2023-02-09T15:15:31.361Z,22.27
2023-02-09T15:17:59.980Z,27.70
2023-02-09T15:20:29.114Z,24.70
2023-02-09T15:22:56.833Z,24.27
2023-02-09T15:25:25.149Z,24.00
2023-02-09T15:27:53.799Z,24.97
2023-02-09T15:30:29.830Z,24.73
2023-02-09T15:32:57.548Z,24.53
2023-02-09T15:35:26.370Z,24.83
2023-02-09T15:37:55.176Z,23.83
2023-02-09T15:40:41.420Z,28.63
2023-02-09T15:43:31.569Z,30.70
2023-02-09T15:46:17.616Z,31.70
2023-02-09T15:48:44.931Z,27.53
2023-02-09T15:51:12.564Z,28.17
2023-02-09T15:53:40.507Z,30.50
2023-02-09T15:56:09.348Z,35.57
2023-02-09T15:58:38.858Z,26.10
2023-02-09T16:01:06.777Z,24.40
2023-02-09T16:03:34.206Z,24.70
2023-02-09T16:06:05.219Z,29.40
2023-02-09T16:08:33.386Z,27.70
2023-02-09T16:11:01.683Z,25.73
2023-02-09T16:13:29.116Z,30.17
2023-02-09T16:16:05.021Z,27.90
2023-02-09T16:18:38.635Z,28.77
2023-02-09T16:21:07.388Z,30.30
2023-02-09T16:23:35.179Z,28.77
2023-02-09T16:26:05.218Z,32.10
2023-02-09T16:28:32.566Z,36.73
2023-02-09T16:31:00.014Z,29.27
2023-02-09T16:33:27.477Z,37.93
2023-02-09T16:35:56.715Z,32.67
2023-02-09T16:38:24.956Z,33.37
2023-02-09T16:40:53.020Z,38.77
2023-02-09T16:43:20.316Z,31.63
2023-02-09T16:46:02.450Z,34.10
2023-02-09T16:48:32.346Z,34.47
2023-02-09T16:50:59.821Z,32.30
2023-02-09T16:53:32.783Z,29.63
2023-02-09T16:56:01.374Z,41.60
2023-02-09T16:58:28.941Z,30.67
2023-02-09T17:00:57.613Z,42.90
2023-02-09T17:03:31.809Z,29.60
2023-02-09T17:05:59.192Z,36.87
2023-02-09T17:08:27.863Z,35.43
2023-02-09T17:10:56.083Z,35.63
2023-02-09T17:13:24.088Z,34.10
2023-02-09T17:16:00.404Z,31.07
2023-02-09T17:18:33.035Z,32.73
2023-02-09T17:21:13.076Z,29.07
2023-02-09T17:23:42.145Z,32.97
2023-02-09T17:26:10.720Z,28.17
2023-02-09T17:28:38.102Z,29.57
2023-02-09T17:31:12.795Z,28.97
2023-02-09T17:33:40.615Z,30.83
2023-02-09T17:36:25.610Z,27.83
2023-02-09T17:38:54.857Z,31.73
2023-02-09T17:41:33.540Z,36.13
2023-02-09T17:44:31.907Z,53.70
2023-02-09T17:47:09.991Z,34.30
2023-02-09T17:49:37.322Z,33.37
2023-02-09T17:52:04.632Z,35.47
2023-02-09T17:57:57.549Z,36.70
2023-02-09T18:00:25.719Z,29.83
2023-02-09T18:02:53.464Z,32.57
2023-02-09T18:05:22.958Z,32.50
2023-02-09T18:07:50.531Z,36.50
2023-02-09T18:10:18.586Z,27.40
2023-02-09T18:12:46.208Z,34.15
2023-02-09T18:15:20.720Z,41.40
2023-02-09T18:17:48.352Z,34.70
2023-02-09T18:20:17.506Z,38.07
2023-02-09T18:22:45.160Z,35.23
2023-02-09T18:25:18.876Z,39.60
2023-02-09T18:27:46.325Z,31.50
2023-02-09T18:30:13.861Z,31.43
2023-02-09T18:32:41.433Z,33.43
2023-02-09T18:35:09.164Z,30.37
2023-02-09T18:37:40.377Z,32.90
2023-02-09T18:40:07.936Z,36.23
2023-02-09T18:42:35.405Z,36.93
2023-02-09T18:45:02.762Z,33.30
2023-02-09T18:47:30.635Z,31.53
2023-02-09T18:49:58.052Z,34.20
2023-02-09T18:52:27.060Z,39.17
2023-02-09T18:54:54.422Z,40.93
2023-02-09T18:57:21.762Z,32.43
2023-02-09T18:59:49.047Z,41.07
2023-02-09T19:02:16.538Z,37.53
2023-02-09T19:04:43.919Z,38.73
2023-02-09T19:07:12.533Z,36.30
2023-02-09T19:09:40.579Z,31.87
2023-02-09T19:12:07.966Z,30.67
2023-02-09T19:14:41.297Z,36.43
2023-02-09T19:17:10.321Z,29.33
2023-02-09T19:19:38.778Z,32.73
2023-02-09T19:22:06.245Z,34.50
2023-02-09T19:24:33.588Z,35.70
2023-02-09T19:27:00.942Z,36.50
2023-02-09T19:29:29.277Z,34.33
2023-02-09T19:31:56.728Z,29.27
2023-02-09T19:34:24.138Z,36.97
2023-02-09T19:36:51.555Z,34.87
2023-02-09T19:39:19.266Z,35.47
2023-02-09T19:41:48.971Z,35.00
2023-02-09T19:44:16.355Z,36.77
2023-02-09T19:46:43.967Z,36.33
2023-02-09T19:49:11.826Z,32.63
2023-02-09T19:51:39.168Z,33.73
2023-02-09T19:54:06.494Z,33.90
2023-02-09T19:56:33.765Z,34.00
2023-02-09T19:59:01.667Z,37.70
2023-02-09T20:01:31.336Z,37.63
2023-02-09T20:04:01.563Z,34.30
2023-02-09T20:06:30.980Z,33.77
2023-02-09T20:08:59.422Z,31.97
2023-02-09T20:11:27.194Z,31.93
2023-02-09T20:13:55.344Z,44.50
2023-02-09T20:16:24.511Z,37.70
2023-02-09T20:18:52.372Z,40.30
2023-02-09T20:21:21.003Z,42.33
2023-02-09T20:23:48.452Z,43.67
2023-02-09T20:26:17.374Z,34.40
2023-02-09T20:28:45.141Z,43.37
2023-02-09T20:31:14.940Z,45.80
2023-02-09T20:33:43.298Z,41.93
2023-02-09T20:36:10.960Z,50.53
2023-02-09T20:38:38.452Z,45.00
2023-02-09T20:41:09.429Z,46.10
2023-02-09T20:43:56.208Z,42.57
2023-02-09T20:47:00.137Z,49.13
2023-02-09T20:49:36.928Z,42.83
2023-02-09T20:52:04.360Z,48.10
2023-02-09T20:54:32.267Z,43.93
2023-02-09T20:56:59.733Z,53.67
2023-02-09T20:59:27.503Z,47.13
2023-02-09T21:01:54.798Z,49.73
2023-02-09T21:04:22.163Z,54.57
2023-02-09T21:06:49.627Z,46.90
2023-02-09T21:09:16.952Z,48.93
2023-02-09T21:11:44.230Z,48.80
2023-02-09T21:14:21.958Z,57.23
2023-02-09T21:16:59.083Z,44.57
2023-02-09T21:19:26.610Z,46.30
2023-02-09T21:21:54.171Z,50.80
2023-02-09T21:24:21.587Z,46.87
2023-02-09T21:26:49.037Z,49.10
2023-02-09T21:29:16.494Z,52.80
2023-02-09T21:31:44.835Z,63.00
2023-02-09T21:34:16.491Z,60.57
2023-02-09T21:36:43.906Z,53.17
2023-02-09T21:39:11.640Z,66.15
2023-02-09T21:41:57.669Z,55.10
2023-02-09T21:44:25.071Z,67.00
2023-02-09T21:46:53.833Z,56.90
2023-02-09T21:49:21.283Z,45.13
2023-02-09T21:51:49.002Z,52.07
2023-02-09T21:54:17.325Z,49.07
2023-02-09T21:56:45.547Z,54.80
2023-02-09T21:59:13.118Z,52.80
2023-02-09T22:01:42.697Z,53.97
2023-02-09T22:04:10.286Z,50.47
2023-02-09T22:06:37.679Z,51.07
2023-02-09T22:09:06.374Z,55.60
2023-02-09T22:11:33.715Z,57.63
2023-02-09T22:14:01.387Z,58.43
2023-02-09T22:16:29.576Z,58.63
2023-02-09T22:18:57.498Z,59.43
2023-02-09T22:21:25.148Z,49.87
2023-02-09T22:23:54.861Z,52.10
2023-02-09T22:26:22.365Z,58.80
2023-02-09T22:28:50.250Z,49.97
2023-02-09T22:31:18.540Z,56.63
2023-02-09T22:33:46.591Z,51.13
2023-02-09T22:36:19.369Z,55.20
2023-02-09T22:38:46.833Z,55.87
2023-02-09T22:41:22.126Z,52.53
2023-02-09T22:43:53.883Z,61.10
2023-02-09T22:46:22.267Z,60.37
2023-02-09T22:48:53.533Z,54.10
2023-02-09T22:51:21.329Z,62.57
2023-02-09T22:53:48.832Z,49.30
2023-02-09T22:56:16.343Z,66.57
2023-02-09T22:58:43.861Z,56.93
2023-02-09T23:01:11.590Z,67.37
2023-02-09T23:03:39.859Z,62.47
2023-02-09T23:06:08.690Z,58.87
2023-02-09T23:08:36.220Z,61.10
2023-02-09T23:11:04.294Z,61.07
2023-02-09T23:13:32.340Z,60.83
2023-02-09T23:16:10.368Z,60.57
2023-02-09T23:18:38.162Z,53.33
2023-02-09T23:21:06.762Z,64.43
2023-02-09T23:23:34.234Z,61.23
2023-02-09T23:26:01.611Z,63.00
2023-02-09T23:28:29.239Z,68.13
2023-02-09T23:30:56.712Z,70.47
2023-02-09T23:33:24.115Z,72.80
2023-02-09T23:35:51.451Z,70.10
2023-02-09T23:38:19.958Z,68.17
2023-02-09T23:40:47.309Z,68.87
2023-02-09T23:43:14.710Z,66.20
2023-02-09T23:45:42.074Z,73.83
2023-02-09T23:48:09.416Z,68.43
2023-02-09T23:50:36.787Z,74.57
2023-02-09T23:53:04.199Z,64.07
2023-02-09T23:55:31.566Z,101.17
2023-02-09T23:57:58.970Z,72.53
